Pen Duick III — FW3531 — position and weather

sailwx.info

Track history (hours):
 
Tides and Currents Weather Stations Pressure Air Temp Water Temp Dewpoint Dewpoint Depression Visibility Wind Speed Wind Dir Waves Ship Positions

Pen Duick III

Last reported at 2018-Jun-20 10:15 UTC. Time now 2018-Jun-21 12:12 UTC.
Position N 46°08' W 001°11'.

Length 18 m.

Type: Sailing vessel. MMSI: 227510570.

Date/timePositionNaut miles runAvg speedWind from/ knotsBaromVisibWave heightAir tempDewpointWater temp
2018-Jun-20 10:15N 46°08' W 001°11'1 1.7
2018-Jun-20 09:53N 46°07' W 001°12'1 2.1
2018-Jun-20 09:29N 46°06' W 001°11'0 0.8
2018-Jun-20 08:57N 46°06' W 001°11'2 3.4
2018-Jun-20 08:30N 46°08' W 001°11'1 2.7
2018-Jun-20 07:59N 46°09' W 001°10'1 0.1
2018-Jun-19 19:40N 46°09' W 001°09'0 0.0
2018-Jun-19 19:28N 46°09' W 001°09'1 1.8
2018-Jun-19 19:00N 46°09' W 001°10'1 1.0
2018-Jun-19 18:28N 46°09' W 001°11'2 3.4
2018-Jun-19 17:57N 46°08' W 001°13'3 6.6
2018-Jun-19 17:30N 46°07' W 001°17'104 2.5
2018-Jun-17 23:42N 47°22' W 003°04'2 6.5
2018-Jun-17 23:24N 47°23' W 003°06'3 6.4
2018-Jun-17 22:56N 47°26' W 003°07'3 6.1
2018-Jun-17 22:30N 47°28' W 003°09'3 6.6
2018-Jun-17 22:00N 47°31' W 003°12'4 8.0
2018-Jun-17 21:30N 47°34' W 003°15'4 7.3
2018-Jun-17 21:00N 47°37' W 003°18'3 6.9
2018-Jun-17 20:30N 47°40' W 003°21'3 5.8
2018-Jun-17 20:00N 47°43' W 003°22'0 0.1
2018-Jun-17 18:35N 47°43' W 003°22'0 0.8
2018-Jun-17 18:30N 47°43' W 003°22'1 0.0
2018-Jun-16 13:37N 47°44' W 003°22'0 0.0
2018-Jun-16 13:25N 47°44' W 003°22'0 0.0
2018-Jun-16 12:58N 47°44' W 003°22'0 0.0
2018-Jun-16 12:24N 47°44' W 003°22'0 0.0
2018-Jun-15 15:22N 47°44' W 003°22'0 0.0
2018-Jun-15 14:55N 47°44' W 003°22'0 0.0
2018-Jun-15 14:28N 47°44' W 003°22'0 0.0
2018-Jun-15 13:52N 47°44' W 003°22'0 0.0
2018-Jun-15 13:28N 47°44' W 003°22'0 0.1
2018-Jun-15 10:05N 47°44' W 003°22'0 0.0
2018-Jun-15 09:59N 47°44' W 003°22'2 3.2
2018-Jun-15 09:30N 47°42' W 003°22'2 4.8
2018-Jun-15 09:00N 47°41' W 003°25'3 6.6
2018-Jun-15 08:30N 47°43' W 003°22'1 1.6
2018-Jun-15 08:00N 47°44' W 003°22'0 0.0
2018-Jun-14 21:24N 47°44' W 003°22'0 0.0
2018-Jun-14 21:00N 47°44' W 003°22'0 0.0
2018-Jun-14 20:27N 47°44' W 003°22'0 0.0
2018-Jun-14 19:51N 47°44' W 003°22'0 0.0
2018-Jun-14 19:12N 47°44' W 003°22'0 0.0
2018-Jun-14 18:20N 47°44' W 003°22'0 0.0
2018-Jun-14 17:54N 47°44' W 003°22'0 0.0
2018-Jun-14 17:29N 47°44' W 003°22'0 0.0
2018-Jun-14 16:53N 47°44' W 003°22'0 0.0
2018-Jun-14 16:29N 47°44' W 003°22'0 0.0
2018-Jun-14 15:53N 47°44' W 003°22'0 0.0
2018-Jun-14 15:20N 47°44' W 003°22'0 0.0
2018-Jun-14 14:59N 47°44' W 003°22'0 0.0
2018-Jun-14 14:28N 47°44' W 003°22'1 2.3
2018-Jun-14 14:00N 47°43' W 003°22'3 6.5
2018-Jun-14 13:30N 47°40' W 003°23'3 5.8
2018-Jun-14 13:00N 47°43' W 003°22'1 0.3
2018-Jun-14 09:43N 47°44' W 003°22'0 1.4
2018-Jun-14 09:29N 47°43' W 003°22'3 6.1
2018-Jun-14 09:00N 47°40' W 003°22'1 1.8
2018-Jun-14 08:30N 47°41' W 003°22'2 0.2
2018-Jun-13 20:52N 47°44' W 003°22'0 0.0
2018-Jun-13 20:28N 47°44' W 003°22'0 0.0
2018-Jun-13 19:52N 47°44' W 003°22'0 0.0
2018-Jun-13 19:25N 47°44' W 003°22'0 0.0
2018-Jun-13 18:55N 47°44' W 003°22'0 0.0
2018-Jun-13 18:31N 47°44' W 003°22'0 0.0
2018-Jun-13 17:54N 47°44' W 003°22'0 0.0
2018-Jun-13 17:30N 47°44' W 003°22'0 0.0
2018-Jun-13 16:54N 47°44' W 003°22'0 0.0
2018-Jun-13 16:24N 47°44' W 003°22'0 0.0
2018-Jun-13 15:42N 47°44' W 003°22'0 0.0
2018-Jun-13 15:30N 47°44' W 003°22'0 0.0
2018-Jun-13 15:00N 47°44' W 003°22'0 0.0
2018-Jun-13 14:30N 47°44' W 003°22'1 1.3
2018-Jun-13 14:00N 47°44' W 003°22'3 6.7
2018-Jun-13 13:29N 47°40' W 003°23'2 4.9
2018-Jun-13 12:59N 47°43' W 003°22'1 0.3
2018-Jun-13 09:52N 47°44' W 003°22'1 2.6
2018-Jun-13 09:26N 47°42' W 003°22'1 1.8
2018-Jun-13 08:59N 47°42' W 003°23'1 1.1
2018-Jun-13 08:30N 47°42' W 003°22'2 2.9
2018-Jun-13 07:59N 47°44' W 003°22'0 0.0
2018-Jun-12 22:05N 47°44' W 003°22'0 0.0
2018-Jun-12 21:59N 47°44' W 003°22'0 0.0
2018-Jun-12 21:26N 47°44' W 003°22'0 0.0
2018-Jun-12 20:50N 47°44' W 003°22'0 0.0
2018-Jun-12 20:26N 47°44' W 003°22'0 0.0
2018-Jun-12 19:59N 47°44' W 003°22'0 0.0
2018-Jun-12 15:17N 47°44' W 003°22'0 0.0
2018-Jun-12 14:43N 47°44' W 003°22'2 2.1
2018-Jun-12 13:58N 47°42' W 003°23'2 4.4
2018-Jun-12 13:30N 47°40' W 003°21'2 4.6
2018-Jun-12 13:00N 47°43' W 003°22'1 2.3
2018-Jun-12 12:25N 47°44' W 003°22'0 0.0
2018-Jun-12 11:34N 47°44' W 003°22'0 0.0
2018-Jun-12 11:10N 47°44' W 003°22'0 0.0
2018-Jun-12 10:58N 47°44' W 003°22'0 0.0
2018-Jun-12 10:28N 47°44' W 003°22'0 0.0
2018-Jun-12 09:58N 47°44' W 003°22'2 3.1
2018-Jun-12 09:27N 47°42' W 003°22'2 4.2
2018-Jun-12 08:59N 47°41' W 003°25'3 6.1
2018-Jun-12 08:30N 47°43' W 003°22'0 0.0
2018-Jun-11 14:53N 47°44' W 003°22'0 0.0
2018-Jun-11 14:29N 47°44' W 003°22'1 2.7
2018-Jun-11 13:59N 47°42' W 003°22'0 0.8
2018-Jun-11 13:30N 47°42' W 003°22'1 1.8
2018-Jun-11 13:00N 47°43' W 003°22'1 2.0
2018-Jun-11 12:29N 47°44' W 003°22'0 0.0
2018-Jun-11 11:59N 47°44' W 003°22'0 0.0
2018-Jun-11 11:26N 47°44' W 003°22'0 0.0
2018-Jun-11 10:53N 47°44' W 003°22'0 0.0
2018-Jun-11 10:26N 47°44' W 003°22'0 0.0
2018-Jun-11 09:58N 47°44' W 003°22'2 3.2
2018-Jun-11 09:19N 47°42' W 003°23'0 0.7
2018-Jun-11 09:00N 47°42' W 003°23'1 2.4
2018-Jun-11 08:30N 47°43' W 003°22'1 0.0
2018-Jun-10 13:40N 47°44' W 003°22'0 0.8
2018-Jun-10 13:22N 47°43' W 003°22'1 4.0
2018-Jun-10 13:00N 47°42' W 003°23'3 6.0
2018-Jun-10 12:29N 47°40' W 003°25'1 2.6
2018-Jun-10 11:58N 47°39' W 003°27'0 0.0
2018-Jun-10 11:28N 47°39' W 003°27'0 0.0
2018-Jun-10 10:58N 47°39' W 003°27'0 0.0
2018-Jun-10 10:28N 47°39' W 003°27'  
Track history (hours):
 
Tides and Currents Weather Stations Pressure Air Temp Water Temp Dewpoint Dewpoint Depression Visibility Wind Speed Wind Dir Waves Ship Positions

Pen Duick III

Last reported at 2018-Jun-20 10:15 UTC. Time now 2018-Jun-21 12:12 UTC.
Position N 46°08' W 001°11'.

Length 18 m.

Type: Sailing vessel. MMSI: 227510570.

Date/timePositionNaut miles runAvg speedWind from/ knotsBaromVisibWave heightAir tempDewpointWater temp
2018-Jun-20 10:15N 46°08' W 001°11'1 1.7
2018-Jun-20 09:53N 46°07' W 001°12'1 2.1
2018-Jun-20 09:29N 46°06' W 001°11'0 0.8
2018-Jun-20 08:57N 46°06' W 001°11'2 3.4
2018-Jun-20 08:30N 46°08' W 001°11'1 2.7
2018-Jun-20 07:59N 46°09' W 001°10'1 0.1
2018-Jun-19 19:40N 46°09' W 001°09'0 0.0
2018-Jun-19 19:28N 46°09' W 001°09'1 1.8
2018-Jun-19 19:00N 46°09' W 001°10'1 1.0
2018-Jun-19 18:28N 46°09' W 001°11'2 3.4
2018-Jun-19 17:57N 46°08' W 001°13'3 6.6
2018-Jun-19 17:30N 46°07' W 001°17'104 2.5
2018-Jun-17 23:42N 47°22' W 003°04'2 6.5
2018-Jun-17 23:24N 47°23' W 003°06'3 6.4
2018-Jun-17 22:56N 47°26' W 003°07'3 6.1
2018-Jun-17 22:30N 47°28' W 003°09'3 6.6
2018-Jun-17 22:00N 47°31' W 003°12'4 8.0
2018-Jun-17 21:30N 47°34' W 003°15'4 7.3
2018-Jun-17 21:00N 47°37' W 003°18'3 6.9
2018-Jun-17 20:30N 47°40' W 003°21'3 5.8
2018-Jun-17 20:00N 47°43' W 003°22'0 0.1
2018-Jun-17 18:35N 47°43' W 003°22'0 0.8
2018-Jun-17 18:30N 47°43' W 003°22'1 0.0
2018-Jun-16 13:37N 47°44' W 003°22'0 0.0
2018-Jun-16 13:25N 47°44' W 003°22'0 0.0
2018-Jun-16 12:58N 47°44' W 003°22'0 0.0
2018-Jun-16 12:24N 47°44' W 003°22'0 0.0
2018-Jun-15 15:22N 47°44' W 003°22'0 0.0
2018-Jun-15 14:55N 47°44' W 003°22'0 0.0
2018-Jun-15 14:28N 47°44' W 003°22'0 0.0
2018-Jun-15 13:52N 47°44' W 003°22'0 0.0
2018-Jun-15 13:28N 47°44' W 003°22'0 0.1
2018-Jun-15 10:05N 47°44' W 003°22'0 0.0
2018-Jun-15 09:59N 47°44' W 003°22'2 3.2
2018-Jun-15 09:30N 47°42' W 003°22'2 4.8
2018-Jun-15 09:00N 47°41' W 003°25'3 6.6
2018-Jun-15 08:30N 47°43' W 003°22'1 1.6
2018-Jun-15 08:00N 47°44' W 003°22'0 0.0
2018-Jun-14 21:24N 47°44' W 003°22'0 0.0
2018-Jun-14 21:00N 47°44' W 003°22'0 0.0
2018-Jun-14 20:27N 47°44' W 003°22'0 0.0
2018-Jun-14 19:51N 47°44' W 003°22'0 0.0
2018-Jun-14 19:12N 47°44' W 003°22'0 0.0
2018-Jun-14 18:20N 47°44' W 003°22'0 0.0
2018-Jun-14 17:54N 47°44' W 003°22'0 0.0
2018-Jun-14 17:29N 47°44' W 003°22'0 0.0
2018-Jun-14 16:53N 47°44' W 003°22'0 0.0
2018-Jun-14 16:29N 47°44' W 003°22'0 0.0
2018-Jun-14 15:53N 47°44' W 003°22'0 0.0
2018-Jun-14 15:20N 47°44' W 003°22'0 0.0
2018-Jun-14 14:59N 47°44' W 003°22'0 0.0
2018-Jun-14 14:28N 47°44' W 003°22'1 2.3
2018-Jun-14 14:00N 47°43' W 003°22'3 6.5
2018-Jun-14 13:30N 47°40' W 003°23'3 5.8
2018-Jun-14 13:00N 47°43' W 003°22'1 0.3
2018-Jun-14 09:43N 47°44' W 003°22'0 1.4
2018-Jun-14 09:29N 47°43' W 003°22'3 6.1
2018-Jun-14 09:00N 47°40' W 003°22'1 1.8
2018-Jun-14 08:30N 47°41' W 003°22'2 0.2
2018-Jun-13 20:52N 47°44' W 003°22'0 0.0
2018-Jun-13 20:28N 47°44' W 003°22'0 0.0
2018-Jun-13 19:52N 47°44' W 003°22'0 0.0
2018-Jun-13 19:25N 47°44' W 003°22'0 0.0
2018-Jun-13 18:55N 47°44' W 003°22'0 0.0
2018-Jun-13 18:31N 47°44' W 003°22'0 0.0
2018-Jun-13 17:54N 47°44' W 003°22'0 0.0
2018-Jun-13 17:30N 47°44' W 003°22'0 0.0
2018-Jun-13 16:54N 47°44' W 003°22'0 0.0
2018-Jun-13 16:24N 47°44' W 003°22'0 0.0
2018-Jun-13 15:42N 47°44' W 003°22'0 0.0
2018-Jun-13 15:30N 47°44' W 003°22'0 0.0
2018-Jun-13 15:00N 47°44' W 003°22'0 0.0
2018-Jun-13 14:30N 47°44' W 003°22'1 1.3
2018-Jun-13 14:00N 47°44' W 003°22'3 6.7
2018-Jun-13 13:29N 47°40' W 003°23'2 4.9
2018-Jun-13 12:59N 47°43' W 003°22'1 0.3
2018-Jun-13 09:52N 47°44' W 003°22'1 2.6
2018-Jun-13 09:26N 47°42' W 003°22'1 1.8
2018-Jun-13 08:59N 47°42' W 003°23'1 1.1
2018-Jun-13 08:30N 47°42' W 003°22'2 2.9
2018-Jun-13 07:59N 47°44' W 003°22'0 0.0
2018-Jun-12 22:05N 47°44' W 003°22'0 0.0
2018-Jun-12 21:59N 47°44' W 003°22'0 0.0
2018-Jun-12 21:26N 47°44' W 003°22'0 0.0
2018-Jun-12 20:50N 47°44' W 003°22'0 0.0
2018-Jun-12 20:26N 47°44' W 003°22'0 0.0
2018-Jun-12 19:59N 47°44' W 003°22'0 0.0
2018-Jun-12 15:17N 47°44' W 003°22'0 0.0
2018-Jun-12 14:43N 47°44' W 003°22'2 2.1
2018-Jun-12 13:58N 47°42' W 003°23'2 4.4
2018-Jun-12 13:30N 47°40' W 003°21'2 4.6
2018-Jun-12 13:00N 47°43' W 003°22'1 2.3
2018-Jun-12 12:25N 47°44' W 003°22'0 0.0
2018-Jun-12 11:34N 47°44' W 003°22'0 0.0
2018-Jun-12 11:10N 47°44' W 003°22'0 0.0
2018-Jun-12 10:58N 47°44' W 003°22'0 0.0
2018-Jun-12 10:28N 47°44' W 003°22'0 0.0
2018-Jun-12 09:58N 47°44' W 003°22'2 3.1
2018-Jun-12 09:27N 47°42' W 003°22'2 4.2
2018-Jun-12 08:59N 47°41' W 003°25'3 6.1
2018-Jun-12 08:30N 47°43' W 003°22'0 0.0
2018-Jun-11 14:53N 47°44' W 003°22'0 0.0
2018-Jun-11 14:29N 47°44' W 003°22'1 2.7
2018-Jun-11 13:59N 47°42' W 003°22'0 0.8
2018-Jun-11 13:30N 47°42' W 003°22'1 1.8
2018-Jun-11 13:00N 47°43' W 003°22'1 2.0
2018-Jun-11 12:29N 47°44' W 003°22'0 0.0
2018-Jun-11 11:59N 47°44' W 003°22'0 0.0
2018-Jun-11 11:26N 47°44' W 003°22'0 0.0
2018-Jun-11 10:53N 47°44' W 003°22'0 0.0
2018-Jun-11 10:26N 47°44' W 003°22'0 0.0
2018-Jun-11 09:58N 47°44' W 003°22'2 3.2
2018-Jun-11 09:19N 47°42' W 003°23'0 0.7
2018-Jun-11 09:00N 47°42' W 003°23'1 2.4
2018-Jun-11 08:30N 47°43' W 003°22'1 0.0
2018-Jun-10 13:40N 47°44' W 003°22'0 0.8
2018-Jun-10 13:22N 47°43' W 003°22'1 4.0
2018-Jun-10 13:00N 47°42' W 003°23'3 6.0
2018-Jun-10 12:29N 47°40' W 003°25'1 2.6
2018-Jun-10 11:58N 47°39' W 003°27'0 0.0
2018-Jun-10 11:28N 47°39' W 003°27'0 0.0
2018-Jun-10 10:58N 47°39' W 003°27'0 0.0
2018-Jun-10 10:28N 47°39' W 003°27'  

Dump ship's entire track history